Time;durP1;ratioP1;P1;durP2;ratioP2;P2;SDS_P1;SDS_P2;PMS_P1;PMS_P2;Temp;Humidity;BMP_temperature;BMP_pressure;BME280_temperature;BME280_humidity;BME280_pressure;Samples;Min_cycle;Max_cycle;Signal;HPM_P1;HPM_P2
2022/08/14 00:00:12;;;;;;;1999.90;999.90;;;;;;;15.76;60.56;98804.22;10030174;23;20269;-77
2022/08/14 00:04:13;;;;;;;1999.90;999.90;;;;;;;15.77;60.93;98789.38;10028588;23;20050;-77
2022/08/14 00:08:35;;;;;;;1999.90;999.90;;;;;;;15.78;61.15;98786.72;10029074;23;20101;-77
2022/08/14 00:12:52;;;;;;;1999.90;999.90;;;;;;;15.79;61.54;98777.09;10006307;23;20379;-77
2022/08/14 00:16:57;;;;;;;1999.90;999.90;;;;;;;15.79;61.62;98770.09;10025881;23;20031;-77
2022/08/14 00:21:02;;;;;;;1999.90;999.90;;;;;;;15.76;61.49;98767.59;10029862;23;20022;-77
2022/08/14 00:25:07;;;;;;;1999.90;999.90;;;;;;;15.68;61.35;98767.03;10029947;23;20022;-77
2022/08/14 00:29:09;;;;;;;1999.90;999.90;;;;;;;15.59;61.35;98765.56;10030687;23;20026;-77
2022/08/14 00:33:12;;;;;;;1999.90;999.90;;;;;;;15.58;62.03;98762.97;10004306;23;20077;-77
2022/08/14 00:37:16;;;;;;;1999.90;999.90;;;;;;;15.51;62.16;98749.25;10005102;23;20023;-77
2022/08/14 00:41:18;;;;;;;1999.90;999.90;;;;;;;15.47;61.99;98757.25;10004508;23;20061;-77
2022/08/14 00:45:20;;;;;;;;;;;;;;;15.29;62.41;98774.44;10000663;23;20120;-77
2022/08/14 00:49:22;;;;;;;1999.90;999.90;;;;;;;15.09;63.13;98764.63;10029845;23;19977;-76
2022/08/14 00:53:24;;;;;;;;;;;;;;;15.13;63.22;98762.78;10044193;23;20137;-77
2022/08/14 00:57:30;;;;;;;1999.90;999.90;;;;;;;15.13;62.77;98768.00;10030279;23;19932;-77
2022/08/14 01:01:35;;;;;;;1999.90;999.90;;;;;;;15.08;62.94;98769.00;10001024;23;20050;-77
2022/08/14 01:05:37;;;;;;;1999.90;999.90;;;;;;;15.04;63.30;98769.13;10004939;23;20019;-77
2022/08/14 01:09:56;;;;;;;1999.90;999.90;;;;;;;15.00;63.74;98757.94;10030578;23;20029;-77
2022/08/14 01:14:00;;;;;;;1999.90;999.90;;;;;;;14.97;64.48;98759.81;10003691;23;20470;-77
2022/08/14 01:22:40;;;;;;;1999.90;999.90;;;;;;;14.89;63.75;98760.03;10003133;23;20374;-77
2022/08/14 01:26:45;;;;;;;1999.90;999.90;;;;;;;14.67;64.60;98751.16;10004354;23;20023;-78
2022/08/14 01:30:56;;;;;;;1999.90;999.90;;;;;;;14.55;65.15;98751.56;9998724;23;20034;-77
2022/08/14 01:34:57;;;;;;;1999.90;999.90;;;;;;;14.55;64.75;98743.72;10003433;23;20018;-77
2022/08/14 01:39:19;;;;;;;1999.90;999.90;;;;;;;14.45;65.73;98730.94;10006008;23;20094;-77
2022/08/14 01:43:21;;;;;;;1999.90;999.90;;;;;;;14.49;65.20;98726.47;10026259;23;20111;-78
2022/08/14 01:47:27;;;;;;;1999.90;999.90;;;;;;;14.52;65.50;98727.22;10032244;23;20038;-77
2022/08/14 01:51:34;;;;;;;1999.90;999.90;;;;;;;14.55;65.66;98714.97;10032722;23;20031;-77
2022/08/14 01:55:38;;;;;;;1999.90;999.90;;;;;;;14.41;65.66;98716.22;10034565;23;20019;-77
2022/08/14 01:59:43;;;;;;;1999.90;999.90;;;;;;;14.45;66.10;98715.25;10034465;23;20026;-77
2022/08/14 02:03:45;;;;;;;1999.90;999.90;;;;;;;14.46;66.14;98710.88;10032063;23;20031;-78
2022/08/14 02:07:54;;;;;;;1999.90;999.90;;;;;;;14.40;66.78;98708.44;10040302;23;20097;-78
2022/08/14 02:12:09;;;;;;;1999.90;999.90;;;;;;;14.28;67.15;98708.81;10037538;23;20023;-77
2022/08/14 02:16:26;;;;;;;1999.90;999.90;;;;;;;14.19;67.07;98697.75;10035950;23;20042;-77
2022/08/14 02:20:32;;;;;;;1999.90;999.90;;;;;;;14.11;67.48;98702.31;10014815;23;20033;-78
2022/08/14 02:24:36;;;;;;;1999.90;999.90;;;;;;;14.04;67.26;98702.56;10038372;23;20020;-77
2022/08/14 02:28:41;;;;;;;1999.90;999.90;;;;;;;14.02;67.94;98700.00;10040254;23;20022;-78
2022/08/14 02:33:00;;;;;;;1999.90;999.90;;;;;;;14.00;67.84;98709.59;10054610;23;20031;-77
2022/08/14 02:37:08;;;;;;;1999.90;999.90;;;;;;;13.96;67.83;98708.00;10031585;23;20484;-78
2022/08/14 02:41:12;;;;;;;1999.90;999.90;;;;;;;14.02;67.95;98712.19;10040440;23;20018;-78
2022/08/14 02:45:14;;;;;;;;;;;;;;;13.98;67.36;98700.97;10012349;23;20031;-77
2022/08/14 02:49:26;;;;;;;1999.90;999.90;;;;;;;13.89;67.77;98699.50;10014431;23;19917;-78
2022/08/14 02:53:38;;;;;;;1999.90;999.90;;;;;;;13.84;68.07;98687.50;9990793;23;20114;-78
2022/08/14 02:57:42;;;;;;;1999.90;999.90;;;;;;;13.79;67.82;98679.78;10014852;23;20114;-78
2022/08/14 03:01:44;;;;;;;1999.90;999.90;;;;;;;13.77;67.83;98676.34;10035212;23;20088;-78
2022/08/14 03:05:55;;;;;;;1999.90;999.90;;;;;;;13.71;68.03;98662.66;10011191;23;20069;-78
2022/08/14 03:09:56;;;;;;;1999.90;999.90;;;;;;;13.64;68.52;98661.09;10010953;23;20026;-78
2022/08/14 03:14:20;;;;;;;1999.90;999.90;;;;;;;13.64;68.95;98676.75;10008371;23;20027;-78
2022/08/14 03:18:22;;;;;;;1999.90;999.90;;;;;;;13.48;68.92;98668.53;10005157;23;20031;-78
2022/08/14 03:22:33;;;;;;;1999.90;999.90;;;;;;;13.50;69.28;98682.38;10010259;23;20609;-78
2022/08/14 03:26:35;;;;;;;;;;;;;;;13.50;69.09;98680.63;10051608;23;20019;-78
2022/08/14 03:30:40;;;;;;;1999.90;999.90;;;;;;;13.44;69.86;98685.13;10030449;23;19937;-77
2022/08/14 03:34:46;;;;;;;1999.90;999.90;;;;;;;13.42;69.43;98672.13;10008414;23;20326;-78
2022/08/14 03:38:55;;;;;;;1999.90;999.90;;;;;;;13.46;69.22;98671.13;9986258;23;20031;-77
2022/08/14 03:43:16;;;;;;;1999.90;999.90;;;;;;;13.42;69.32;98669.53;10013396;23;20023;-78
2022/08/14 03:47:18;;;;;;;1999.90;999.90;;;;;;;13.39;69.16;98666.16;10035368;23;20027;-78
2022/08/14 03:51:22;;;;;;;1999.90;999.90;;;;;;;13.37;69.49;98668.78;10009533;23;20022;-77
2022/08/14 03:55:24;;;;;;;1999.90;999.90;;;;;;;13.31;69.91;98661.16;9986396;23;20022;-77
2022/08/14 03:59:25;;;;;;;1999.90;999.90;;;;;;;13.33;70.02;98661.97;10009735;23;20022;-78
2022/08/14 04:03:29;;;;;;;1999.90;999.90;;;;;;;13.29;70.42;98663.81;10005513;23;20042;-78
2022/08/14 04:07:30;;;;;;;1999.90;999.90;;;;;;;13.23;70.77;98671.78;10008880;23;20037;-77
2022/08/14 04:11:36;;;;;;;1999.90;999.90;;;;;;;13.21;70.79;98667.50;10008662;23;20034;-78
2022/08/14 04:15:38;;;;;;;;;;;;;;;13.24;70.72;98670.03;10030945;23;20015;-77
2022/08/14 04:20:04;;;;;;;1999.90;999.90;;;;;;;13.26;71.22;98666.47;9983598;23;19992;-77
2022/08/14 04:24:06;;;;;;;1999.90;999.90;;;;;;;13.15;71.28;98672.84;10003852;23;20023;-77
2022/08/14 04:28:10;;;;;;;1999.90;999.90;;;;;;;13.09;71.47;98675.59;10028357;23;20026;-77
2022/08/14 04:32:33;;;;;;;1999.90;999.90;;;;;;;13.10;71.48;98672.09;10026113;23;20030;-77
2022/08/14 04:45:47;;;;;;;1999.90;999.90;;;;;;;13.14;71.82;98665.94;10040982;23;20037;-77
2022/08/14 04:49:51;;;;;;;1999.90;999.90;;;;;;;13.24;71.50;98656.97;10022612;23;20110;-78
2022/08/14 04:53:59;;;;;;;1999.90;999.90;;;;;;;13.28;71.33;98648.19;9982322;23;20022;-77
2022/08/14 04:58:03;;;;;;;1999.90;999.90;;;;;;;13.40;71.13;98644.38;10005298;23;20019;-78
2022/08/14 05:02:06;;;;;;;1999.90;999.90;;;;;;;13.53;71.04;98632.72;10036033;23;20046;-78
2022/08/14 05:06:10;;;;;;;1999.90;999.90;;;;;;;13.68;70.70;98634.88;10033537;23;20015;-78
2022/08/14 05:10:32;;;;;;;1999.90;999.90;;;;;;;13.86;70.18;98641.31;10010087;23;20389;-76
2022/08/14 05:14:33;;;;;;;1999.90;999.90;;;;;;;14.07;69.95;98642.44;10044695;23;20019;-77
2022/08/14 05:18:54;;;;;;;1999.90;999.90;;;;;;;14.26;69.08;98633.13;10024199;23;20402;-77
2022/08/14 05:23:18;;;;;;;1999.90;999.90;;;;;;;14.57;68.96;98632.19;10001868;23;20035;-76
2022/08/14 05:27:23;;;;;;;1999.90;999.90;;;;;;;14.85;68.87;98627.72;10029836;23;20019;-77
2022/08/14 05:31:25;;;;;;;1999.90;999.90;;;;;;;15.22;68.17;98631.69;10001100;23;20042;-77
2022/08/14 05:35:43;;;;;;;1999.90;999.90;;;;;;;15.54;67.11;98630.53;10030596;23;20018;-77
2022/08/14 05:39:47;;;;;;;1999.90;999.90;;;;;;;15.86;67.09;98640.69;10005595;23;20085;-77
2022/08/14 05:43:49;;;;;;;1999.90;999.90;;;;;;;16.34;65.69;98644.97;10004465;23;20407;-77
2022/08/14 05:47:51;;;;;;;1999.90;999.90;;;;;;;17.45;62.47;98645.53;10024434;23;20031;-77
2022/08/14 05:51:53;;;;;;;1999.90;999.90;;;;;;;18.29;59.40;98636.44;10028069;23;20307;-77
2022/08/14 05:55:55;;;;;;;1999.90;999.90;;;;;;;18.93;57.97;98637.72;10007719;23;20030;-78
2022/08/14 05:59:56;;;;;;;1999.90;999.90;;;;;;;19.29;57.31;98625.31;10032305;23;20030;-77
2022/08/14 06:04:00;;;;;;;1999.90;999.90;;;;;;;19.57;56.22;98626.53;10027772;23;20033;-76
2022/08/14 06:08:13;;;;;;;1999.90;999.90;;;;;;;20.00;54.88;98625.06;10044301;23;20018;-78
2022/08/14 06:12:36;;;;;;;1999.90;999.90;;;;;;;20.31;53.97;98618.09;10004153;23;20109;-77
2022/08/14 06:16:57;;;;;;;1999.90;999.90;;;;;;;20.89;52.56;98612.13;10024953;23;20037;-77
2022/08/14 06:21:01;;;;;;;1999.90;999.90;;;;;;;21.60;51.41;98599.03;10028219;23;20042;-77
2022/08/14 06:25:02;;;;;;;1999.90;999.90;;;;;;;22.23;48.74;98590.63;10003272;23;20085;-77
2022/08/14 06:29:06;;;;;;;1999.90;999.90;;;;;;;22.70;47.27;98571.63;10019342;23;20030;-77
2022/08/14 06:33:07;;;;;;;1999.90;999.90;;;;;;;23.23;44.93;98559.22;10028698;23;20026;-76
2022/08/14 06:37:09;;;;;;;1999.90;999.90;;;;;;;23.52;44.26;98550.09;10003374;23;20109;-78
2022/08/14 06:41:11;;;;;;;1999.90;999.90;;;;;;;23.40;44.27;98550.94;10002606;23;20023;-77
2022/08/14 06:45:21;;;;;;;1999.90;999.90;;;;;;;23.10;44.54;98535.38;10000728;23;20023;-77
2022/08/14 06:49:26;;;;;;;1999.90;999.90;;;;;;;22.80;45.18;98530.38;10020004;23;20426;-78
2022/08/14 06:53:30;;;;;;;1999.90;999.90;;;;;;;23.08;44.95;98547.88;10024941;23;20034;-77
2022/08/14 06:57:40;;;;;;;1999.90;999.90;;;;;;;23.71;44.36;98546.16;10027270;23;20026;-78
2022/08/14 07:06:02;;;;;;;1999.90;999.90;;;;;;;23.62;44.36;98550.31;10028084;23;20102;-77
2022/08/14 07:10:11;;;;;;;1999.90;999.90;;;;;;;24.27;43.69;98552.66;10029374;23;20501;-77
2022/08/14 07:14:17;;;;;;;1999.90;999.90;;;;;;;24.87;42.53;98558.81;10004598;23;20023;-77
2022/08/14 07:18:24;;;;;;;1999.90;999.90;;;;;;;25.28;41.65;98552.97;9977210;23;20120;-77
2022/08/14 07:22:26;;;;;;;1999.90;999.90;;;;;;;25.68;40.64;98556.06;10030422;23;20027;-77
2022/08/14 07:26:33;;;;;;;1999.90;999.90;;;;;;;26.03;40.10;98552.34;10005266;23;20356;-77
2022/08/14 07:30:39;;;;;;;1999.90;999.90;;;;;;;26.36;38.87;98570.94;10004597;23;20096;-78
2022/08/14 07:34:50;;;;;;;1999.90;999.90;;;;;;;26.61;38.45;98558.25;10004480;23;20023;-77
2022/08/14 07:38:52;;;;;;;1999.90;999.90;;;;;;;26.89;37.94;98570.94;10046790;23;20033;-78
2022/08/14 07:42:54;;;;;;;;;;;;;;;27.19;38.06;98578.19;10032506;23;20030;-78
2022/08/14 07:46:56;;;;;;;1999.90;999.90;;;;;;;27.37;36.95;98568.59;10002641;23;20567;-77
2022/08/14 07:50:58;;;;;;;1999.90;999.90;;;;;;;27.60;36.85;98573.75;10046656;23;20022;-77
2022/08/14 07:55:13;;;;;;;1999.90;999.90;;;;;;;27.87;35.92;98559.84;10009546;23;20018;-77
2022/08/14 07:59:23;;;;;;;1999.90;999.90;;;;;;;28.23;35.62;98547.69;10007610;23;20027;-77
2022/08/14 08:03:45;;;;;;;1999.90;999.90;;;;;;;28.57;34.37;98546.34;10030141;23;20692;-77
2022/08/14 08:07:52;;;;;;;1999.90;999.90;;;;;;;28.78;34.07;98548.88;10035496;23;20445;-78
2022/08/14 08:11:55;;;;;;;1999.90;999.90;;;;;;;28.79;33.04;98534.50;10033665;23;20022;-77
2022/08/14 08:15:57;;;;;;;1999.90;999.90;;;;;;;28.89;32.54;98518.47;10028739;23;20063;-78
2022/08/14 08:19:59;;;;;;;1999.90;999.90;;;;;;;29.04;31.93;98511.69;10032887;23;20054;-77
2022/08/14 08:24:01;;;;;;;1999.90;999.90;;;;;;;29.13;31.80;98508.16;10010372;23;20323;-77
2022/08/14 08:28:07;;;;;;;1999.90;999.90;;;;;;;29.37;31.21;98529.03;10050236;23;20034;-77
2022/08/14 08:32:20;;;;;;;1999.90;999.90;;;;;;;29.59;30.97;98533.19;9981506;23;20038;-77
2022/08/14 08:36:40;;;;;;;1999.90;999.90;;;;;;;29.92;30.35;98522.88;10025390;23;20046;-77
2022/08/14 08:40:45;;;;;;;1999.90;999.90;;;;;;;30.23;29.64;98529.63;10004243;23;20023;-77
2022/08/14 08:44:55;;;;;;;1999.90;999.90;;;;;;;30.52;29.50;98531.22;10004157;23;20061;-77
2022/08/14 08:48:57;;;;;;;1999.90;999.90;;;;;;;30.62;29.16;98532.84;10025789;23;20038;-77
2022/08/14 08:53:01;;;;;;;1999.90;999.90;;;;;;;30.55;28.55;98542.50;10029452;23;20014;-77
2022/08/14 08:57:11;;;;;;;1999.90;999.90;;;;;;;30.40;28.31;98538.66;10028559;23;20023;-76
2022/08/14 09:01:27;;;;;;;1999.90;999.90;;;;;;;30.41;28.35;98536.81;10022894;23;20114;-77
2022/08/14 09:05:30;;;;;;;1999.90;999.90;;;;;;;30.66;28.18;98541.41;10026303;23;20050;-77
2022/08/14 09:09:33;;;;;;;1999.90;999.90;;;;;;;30.98;27.55;98540.84;10039527;23;20472;-77
2022/08/14 09:13:54;;;;;;;1999.90;999.90;;;;;;;31.15;26.83;98518.50;10024074;23;20105;-77
2022/08/14 09:17:58;;;;;;;1999.90;999.90;;;;;;;31.09;26.10;98504.88;10042714;23;20027;-77
2022/08/14 09:22:00;;;;;;;1999.90;999.90;;;;;;;31.13;26.63;98499.03;10022982;23;20023;-77
2022/08/14 09:26:21;;;;;;;1999.90;999.90;;;;;;;31.23;26.34;98497.09;10024963;23;20022;-76
2022/08/14 09:30:31;;;;;;;1999.90;999.90;;;;;;;31.32;26.37;98481.06;10022224;23;20471;-77
2022/08/14 09:34:43;;;;;;;1999.90;999.90;;;;;;;31.37;26.59;98468.84;10024142;23;20022;-77
2022/08/14 09:39:11;;;;;;;1999.90;999.90;;;;;;;31.46;25.96;98448.25;10043523;23;20034;-77
2022/08/14 09:43:50;;;;;;;1999.90;999.90;;;;;;;31.72;25.63;98448.16;10018909;23;20053;-77
2022/08/14 09:47:55;;;;;;;1999.90;999.90;;;;;;;31.77;24.40;98446.69;10023387;23;20065;-77
2022/08/14 09:52:05;;;;;;;1999.90;999.90;;;;;;;32.00;24.82;98449.59;10001894;23;20110;-77
2022/08/14 09:56:26;;;;;;;1999.90;999.90;;;;;;;32.04;24.11;98440.19;10024482;23;20881;-77
2022/08/14 10:00:47;;;;;;;1999.90;999.90;;;;;;;32.19;24.12;98426.13;10022195;23;20054;-76
2022/08/14 10:05:32;;;;;;;1999.90;999.90;;;;;;;32.43;24.23;98421.59;9999398;23;20030;-77
2022/08/14 10:09:45;;;;;;;1999.90;999.90;;;;;;;32.43;22.80;98432.34;9990393;23;20026;-76
2022/08/14 10:14:11;;;;;;;1999.90;999.90;;;;;;;32.43;22.72;98410.84;10025143;23;20027;-77
2022/08/14 10:18:15;;;;;;;1999.90;999.90;;;;;;;32.42;22.83;98401.09;10025315;23;20402;-76
2022/08/14 10:22:29;;;;;;;1999.90;999.90;;;;;;;32.71;23.11;98395.19;10025259;23;20098;-76
2022/08/14 10:26:55;;;;;;;1999.90;999.90;;;;;;;32.91;22.07;98406.44;10023273;23;20105;-76
2022/08/14 10:31:01;;;;;;;1999.90;999.90;;;;;;;32.96;22.19;98403.22;9995860;23;20110;-76
2022/08/14 10:35:07;;;;;;;1999.90;999.90;;;;;;;32.85;21.72;98382.88;10024104;23;20046;-76
2022/08/14 10:39:21;;;;;;;1999.90;999.90;;;;;;;32.91;22.02;98376.84;10023549;23;20022;-76
2022/08/14 10:43:24;;;;;;;1999.90;999.90;;;;;;;33.27;22.79;98379.88;9975171;23;20030;-77
2022/08/14 10:47:35;;;;;;;1999.90;999.90;;;;;;;33.41;22.04;98364.88;9999744;23;20030;-77
2022/08/14 10:52:22;;;;;;;1999.90;999.90;;;;;;;33.44;21.89;98361.00;9996850;23;20377;-77
2022/08/14 10:56:34;;;;;;;1999.90;999.90;;;;;;;33.55;21.94;98364.09;10016469;23;20066;-77
2022/08/14 11:00:38;;;;;;;1999.90;999.90;;;;;;;33.61;21.43;98357.19;9995391;23;20073;-77
2022/08/14 11:05:01;;;;;;;1999.90;999.90;;;;;;;33.62;22.03;98366.94;10000758;23;20485;-76
2022/08/14 11:09:12;;;;;;;1999.90;999.90;;;;;;;33.66;21.21;98360.16;10025288;23;20034;-77
2022/08/14 11:13:26;;;;;;;1999.90;999.90;;;;;;;33.49;20.20;98366.66;9999769;23;20026;-77
2022/08/14 11:17:30;;;;;;;1999.90;999.90;;;;;;;33.44;21.30;98358.31;10019174;23;20419;-77
2022/08/14 11:21:39;;;;;;;1999.90;999.90;;;;;;;33.53;20.99;98360.75;10023740;23;20567;-77
2022/08/14 11:25:48;;;;;;;1999.90;999.90;;;;;;;33.53;21.03;98347.28;10024715;23;20046;-77
2022/08/14 11:29:59;;;;;;;1999.90;999.90;;;;;;;33.67;21.11;98353.78;10001408;23;20023;-77
2022/08/14 11:34:20;;;;;;;1999.90;999.90;;;;;;;33.57;19.46;98356.69;10022093;23;20078;-76
2022/08/14 11:38:46;;;;;;;1999.90;999.90;;;;;;;33.51;19.30;98349.31;10001760;23;20030;-77
2022/08/14 11:42:53;;;;;;;1999.90;999.90;;;;;;;33.32;17.55;98339.84;10028248;23;20023;-75
2022/08/14 11:47:01;;;;;;;1999.90;999.90;;;;;;;33.16;18.64;98347.13;10023133;23;20362;-77
2022/08/14 11:51:23;;;;;;;1999.90;999.90;;;;;;;33.36;19.53;98334.94;10027096;23;20825;-75
2022/08/14 11:55:36;;;;;;;1999.90;999.90;;;;;;;33.80;18.35;98340.56;10027234;23;20101;-76
2022/08/14 11:59:39;;;;;;;1999.90;999.90;;;;;;;33.75;16.71;98344.78;10026881;23;20029;-77
2022/08/14 12:03:46;;;;;;;1999.90;999.90;;;;;;;33.58;18.02;98326.06;9998864;23;20505;-76
2022/08/14 12:07:59;;;;;;;1999.90;999.90;;;;;;;33.47;17.49;98328.31;10004633;23;20062;-76
2022/08/14 12:12:15;;;;;;;1999.90;999.90;;;;;;;33.49;18.48;98318.22;10025599;23;20039;-76
2022/08/14 12:16:36;;;;;;;1999.90;999.90;;;;;;;33.30;17.16;98320.31;10021330;23;20034;-76
2022/08/14 12:20:43;;;;;;;1999.90;999.90;;;;;;;33.36;18.02;98316.09;10000508;23;20034;-76
2022/08/14 12:24:52;;;;;;;1999.90;999.90;;;;;;;33.34;18.40;98318.97;10025038;23;20403;-76
2022/08/14 12:29:13;;;;;;;1999.90;999.90;;;;;;;33.09;17.77;98319.28;10026814;23;20114;-76
2022/08/14 12:33:25;;;;;;;1999.90;999.90;;;;;;;33.27;18.25;98331.44;10021594;23;20809;-76
2022/08/14 12:37:35;;;;;;;1999.90;999.90;;;;;;;33.31;18.57;98316.63;10027025;23;20621;-76
2022/08/14 12:41:51;;;;;;;1999.90;999.90;;;;;;;33.24;18.21;98315.66;10000089;23;20784;-76
2022/08/14 12:45:57;;;;;;;1999.90;999.90;;;;;;;33.00;17.72;98321.97;10035259;23;20430;-76
2022/08/14 12:49:59;;;;;;;1999.90;999.90;;;;;;;32.83;18.45;98317.69;10025794;23;20114;-77
2022/08/14 12:54:16;;;;;;;1999.90;999.90;;;;;;;32.62;18.74;98320.09;10016607;23;20840;-76
2022/08/14 12:58:30;;;;;;;1999.90;999.90;;;;;;;32.51;19.52;98315.09;10028137;23;20063;-76
2022/08/14 13:02:54;;;;;;;1999.90;999.90;;;;;;;32.49;19.19;98311.72;10021372;23;20026;-76
2022/08/14 13:07:07;;;;;;;1999.90;999.90;;;;;;;32.39;19.13;98303.88;10002587;23;20054;-74
2022/08/14 13:11:13;;;;;;;1999.90;999.90;;;;;;;32.52;19.29;98297.97;10002807;23;20037;-76
2022/08/14 13:15:17;;;;;;;1999.90;999.90;;;;;;;32.53;19.08;98299.63;9998165;23;20049;-76
2022/08/14 13:19:20;;;;;;;1999.90;999.90;;;;;;;32.70;18.95;98290.50;10001108;23;20089;-76
2022/08/14 13:23:32;;;;;;;1999.90;999.90;;;;;;;32.76;18.73;98296.00;10025690;23;20034;-76
2022/08/14 13:27:36;;;;;;;1999.90;999.90;;;;;;;33.28;19.57;98290.06;10026531;23;20030;-76
2022/08/14 13:31:44;;;;;;;1999.90;999.90;;;;;;;33.46;17.55;98278.19;10021244;23;20031;-76
2022/08/14 13:35:48;;;;;;;1999.90;999.90;;;;;;;33.68;18.32;98263.88;10041747;23;20065;-76
2022/08/14 13:39:53;;;;;;;1999.90;999.90;;;;;;;33.87;17.18;98252.63;10026883;23;20766;-77
2022/08/14 13:43:58;;;;;;;1999.90;999.90;;;;;;;33.85;17.27;98249.28;10025394;23;20113;-76
2022/08/14 13:48:01;;;;;;;1999.90;999.90;;;;;;;33.65;17.04;98246.25;9972314;23;20038;-76
2022/08/14 13:52:04;;;;;;;1999.90;999.90;;;;;;;33.50;17.69;98234.59;9976730;23;20419;-76
2022/08/14 13:56:27;;;;;;;1999.90;999.90;;;;;;;33.58;18.68;98239.09;10000085;23;20025;-77
2022/08/14 14:00:38;;;;;;;1999.90;999.90;;;;;;;33.70;19.10;98232.22;10021148;23;20027;-76
2022/08/14 14:04:59;;;;;;;1999.90;999.90;;;;;;;33.61;18.14;98230.63;10005214;23;20022;-77
2022/08/14 14:09:02;;;;;;;1999.90;999.90;;;;;;;33.70;19.19;98226.00;10026887;23;20439;-77
2022/08/14 14:13:04;;;;;;;1999.90;999.90;;;;;;;33.65;19.11;98226.56;10025928;23;20319;-76
2022/08/14 14:17:08;;;;;;;1999.90;999.90;;;;;;;33.67;19.56;98223.69;9973680;23;20030;-77
2022/08/14 14:21:11;;;;;;;1999.90;999.90;;;;;;;33.63;19.54;98207.88;10025763;23;20023;-77
2022/08/14 14:25:16;;;;;;;1999.90;999.90;;;;;;;33.68;20.03;98214.56;10025749;23;20086;-76
2022/08/14 14:29:24;;;;;;;1999.90;999.90;;;;;;;33.60;20.64;98218.19;10026622;23;20315;-76
2022/08/14 14:33:27;;;;;;;1999.90;999.90;;;;;;;33.26;19.60;98208.69;9994246;23;20030;-76
2022/08/14 14:37:48;;;;;;;1999.90;999.90;;;;;;;33.08;20.71;98209.97;10000605;23;20026;-76
2022/08/14 14:41:51;;;;;;;1999.90;999.90;;;;;;;33.00;20.31;98209.00;10024757;23;20019;-76
2022/08/14 14:45:57;;;;;;;1999.90;999.90;;;;;;;32.99;19.99;98209.19;9972675;23;20056;-77
2022/08/14 14:49:59;;;;;;;1999.90;999.90;;;;;;;32.88;19.61;98202.38;10000274;23;20080;-77
2022/08/14 14:54:02;;;;;;;1999.90;999.90;;;;;;;32.83;19.28;98214.66;9998445;23;20038;-76
2022/08/14 14:58:05;;;;;;;1999.90;999.90;;;;;;;32.56;18.92;98218.63;10000425;23;20046;-77
2022/08/14 15:02:07;;;;;;;1999.90;999.90;;;;;;;32.26;19.38;98215.69;10018883;23;20035;-77
2022/08/14 15:06:11;;;;;;;1999.90;999.90;;;;;;;32.01;19.80;98219.47;10023891;23;20086;-76
2022/08/14 15:10:19;;;;;;;1999.90;999.90;;;;;;;31.89;20.94;98216.28;9999297;23;20030;-76
2022/08/14 15:14:30;;;;;;;1999.90;999.90;;;;;;;31.72;20.11;98204.72;10023718;23;20022;-76
2022/08/14 15:18:52;;;;;;;1999.90;999.90;;;;;;;31.70;20.47;98208.56;9974875;23;20119;-76
2022/08/14 15:22:53;;;;;;;1999.90;999.90;;;;;;;31.76;21.14;98206.06;10001063;23;20018;-75
2022/08/14 15:26:59;;;;;;;1999.90;999.90;;;;;;;31.89;20.49;98210.91;10001059;23;20030;-76
2022/08/14 15:31:02;;;;;;;1999.90;999.90;;;;;;;31.96;20.67;98211.06;10033539;23;20522;-76
2022/08/14 15:35:04;;;;;;;1999.90;999.90;;;;;;;31.98;21.38;98204.53;10040367;23;20777;-77
2022/08/14 15:39:08;;;;;;;1999.90;999.90;;;;;;;31.83;21.29;98204.41;9999920;23;20412;-76
2022/08/14 15:43:10;;;;;;;1999.90;999.90;;;;;;;31.54;21.92;98209.41;10024278;23;20133;-76
2022/08/14 15:47:13;;;;;;;1999.90;999.90;;;;;;;31.48;21.94;98215.47;10019897;23;20461;-76
2022/08/14 15:51:24;;;;;;;1999.90;999.90;;;;;;;31.20;22.36;98206.88;10024181;23;20051;-76
2022/08/14 15:55:31;;;;;;;1999.90;999.90;;;;;;;31.18;22.53;98206.22;9996787;23;20049;-76
2022/08/14 16:03:58;;;;;;;1999.90;999.90;;;;;;;31.00;23.08;98200.97;10016137;23;20042;-76
2022/08/14 16:08:05;;;;;;;1999.90;999.90;;;;;;;30.68;23.74;98210.59;9997243;23;20018;-76
2022/08/14 16:12:27;;;;;;;1999.90;999.90;;;;;;;30.56;24.49;98200.31;9977473;23;20121;-75
2022/08/14 16:16:42;;;;;;;1999.90;999.90;;;;;;;30.46;24.41;98197.75;9993293;23;20107;-76
2022/08/14 16:20:58;;;;;;;1999.90;999.90;;;;;;;30.40;24.74;98203.78;9997031;23;20069;-76
2022/08/14 16:25:02;;;;;;;1999.90;999.90;;;;;;;30.29;24.84;98204.06;10023450;23;20383;-76
2022/08/14 16:29:06;;;;;;;1999.90;999.90;;;;;;;30.14;24.81;98209.16;10041411;23;20050;-76
2022/08/14 16:33:09;;;;;;;1999.90;999.90;;;;;;;29.97;25.68;98208.19;9995550;23;20519;-76
2022/08/14 16:37:33;;;;;;;1999.90;999.90;;;;;;;29.84;25.62;98204.28;10026745;23;20037;-76
2022/08/14 16:41:35;;;;;;;1999.90;999.90;;;;;;;29.68;25.79;98202.34;10000780;23;20114;-76
2022/08/14 16:45:40;;;;;;;1999.90;999.90;;;;;;;29.52;26.28;98203.06;9974462;23;20027;-76
2022/08/14 16:49:44;;;;;;;1999.90;999.90;;;;;;;29.46;26.31;98198.34;10002458;23;20030;-76
2022/08/14 16:54:09;;;;;;;1999.90;999.90;;;;;;;29.36;26.68;98201.06;10002109;23;20023;-76
2022/08/14 16:58:31;;;;;;;1999.90;999.90;;;;;;;29.23;26.60;98203.28;10000942;23;20022;-76
2022/08/14 17:02:34;;;;;;;1999.90;999.90;;;;;;;29.06;26.96;98198.75;10024221;23;20568;-76
2022/08/14 17:06:53;;;;;;;1999.90;999.90;;;;;;;28.91;27.11;98202.97;10001714;23;20114;-76
2022/08/14 17:10:55;;;;;;;1999.90;999.90;;;;;;;28.77;27.17;98202.47;10024269;23;20403;-76
2022/08/14 17:15:03;;;;;;;1999.90;999.90;;;;;;;28.69;27.73;98199.69;9999255;23;20389;-76
2022/08/14 17:19:14;;;;;;;1999.90;999.90;;;;;;;28.57;27.59;98199.06;10000140;23;20022;-76
2022/08/14 17:23:19;;;;;;;1999.90;999.90;;;;;;;28.45;27.55;98194.91;10024844;23;20129;-76
2022/08/14 17:27:30;;;;;;;1999.90;999.90;;;;;;;28.33;27.98;98196.09;9999431;23;20041;-76
2022/08/14 17:31:32;;;;;;;1999.90;999.90;;;;;;;28.23;27.93;98192.63;10022336;23;20026;-76
2022/08/14 17:36:09;;;;;;;;;;;;;;;28.09;28.13;98191.25;10026161;23;20050;-77
2022/08/14 17:40:25;;;;;;;1999.90;999.90;;;;;;;27.98;28.51;98200.28;10003829;23;20362;-76
2022/08/14 17:44:32;;;;;;;1999.90;999.90;;;;;;;27.84;28.99;98198.09;10000908;23;20728;-77
2022/08/14 17:48:45;;;;;;;1999.90;999.90;;;;;;;27.75;30.60;98200.78;10023445;23;20031;-76
2022/08/14 17:53:08;;;;;;;1999.90;999.90;;;;;;;27.57;30.77;98204.13;10025854;23;20643;-76
2022/08/14 17:57:15;;;;;;;1999.90;999.90;;;;;;;27.42;29.99;98210.88;10002472;23;20474;-77
2022/08/14 18:01:18;;;;;;;1999.90;999.90;;;;;;;27.27;30.70;98212.28;10023485;23;20177;-76
2022/08/14 18:05:27;;;;;;;1999.90;999.90;;;;;;;27.17;30.62;98216.81;10041711;23;20093;-76
2022/08/14 18:09:51;;;;;;;1999.90;999.90;;;;;;;27.07;30.22;98216.78;10001772;23;20041;-75
2022/08/14 18:13:59;;;;;;;1999.90;999.90;;;;;;;26.99;30.20;98204.13;10001300;23;20023;-76
2022/08/14 18:18:05;;;;;;;1999.90;999.90;;;;;;;26.94;31.00;98216.19;9997370;23;20027;-76
2022/08/14 18:22:09;;;;;;;1999.90;999.90;;;;;;;26.76;32.10;98214.22;10025522;23;20098;-76
2022/08/14 18:26:32;;;;;;;1999.90;999.90;;;;;;;26.62;33.17;98216.41;10027150;23;20045;-77
2022/08/14 18:30:39;;;;;;;1999.90;999.90;;;;;;;26.44;33.18;98225.06;10038268;23;20054;-76
2022/08/14 18:35:05;;;;;;;1999.90;999.90;;;;;;;26.26;33.47;98221.31;10021705;23;20026;-76
2022/08/14 18:39:20;;;;;;;1999.90;999.90;;;;;;;26.09;34.19;98236.06;10002351;23;20046;-76